sensor_id;sensor_type;location;lat;lon;timestamp;temperature;humidity
20827;DHT22;10574;52.508;13.236;2023-11-21T00:00:06;8.20;99.90
20827;DHT22;10574;52.508;13.236;2023-11-21T00:02:35;8.10;99.90
20827;DHT22;10574;52.508;13.236;2023-11-21T00:05:04;8.10;99.90
20827;DHT22;10574;52.508;13.236;2023-11-21T00:07:34;7.90;99.90
20827;DHT22;10574;52.508;13.236;2023-11-21T00:10:02;7.80;99.90
20827;DHT22;10574;52.508;13.236;2023-11-21T00:12:32;7.60;99.90
20827;DHT22;10574;52.508;13.236;2023-11-21T00:15:00;7.50;99.90
20827;DHT22;10574;52.508;13.236;2023-11-21T00:17:28;7.30;99.90
20827;DHT22;10574;52.508;13.236;2023-11-21T00:19:56;7.30;99.90
20827;DHT22;10574;52.508;13.236;2023-11-21T00:22:23;7.30;99.90
20827;DHT22;10574;52.508;13.236;2023-11-21T00:24:52;7.20;99.90
20827;DHT22;10574;52.508;13.236;2023-11-21T00:27:19;7.20;99.90
20827;DHT22;10574;52.508;13.236;2023-11-21T00:29:47;7.10;99.90
20827;DHT22;10574;52.508;13.236;2023-11-21T00:32:16;7.10;99.90
20827;DHT22;10574;52.508;13.236;2023-11-21T00:34:44;7.00;99.90
20827;DHT22;10574;52.508;13.236;2023-11-21T00:37:12;6.90;99.90
20827;DHT22;10574;52.508;13.236;2023-11-21T00:39:40;6.90;99.90
20827;DHT22;10574;52.508;13.236;2023-11-21T00:42:08;6.90;99.90
20827;DHT22;10574;52.508;13.236;2023-11-21T00:44:38;6.80;99.90
20827;DHT22;10574;52.508;13.236;2023-11-21T00:47:06;6.80;99.90
20827;DHT22;10574;52.508;13.236;2023-11-21T00:49:34;6.70;99.90
20827;DHT22;10574;52.508;13.236;2023-11-21T00:52:04;6.60;99.90
20827;DHT22;10574;52.508;13.236;2023-11-21T00:54:32;6.60;99.90
20827;DHT22;10574;52.508;13.236;2023-11-21T00:57:00;6.60;99.90
20827;DHT22;10574;52.508;13.236;2023-11-21T00:59:27;6.60;99.90
20827;DHT22;10574;52.508;13.236;2023-11-21T01:01:55;6.50;99.90
20827;DHT22;10574;52.508;13.236;2023-11-21T01:04:23;6.60;99.90
20827;DHT22;10574;52.508;13.236;2023-11-21T01:06:50;6.60;99.90
20827;DHT22;10574;52.508;13.236;2023-11-21T01:09:18;6.70;99.90
20827;DHT22;10574;52.508;13.236;2023-11-21T01:11:46;6.70;99.90
20827;DHT22;10574;52.508;13.236;2023-11-21T01:14:14;6.70;99.90
20827;DHT22;10574;52.508;13.236;2023-11-21T01:16:41;6.60;99.90
20827;DHT22;10574;52.508;13.236;2023-11-21T01:19:09;6.70;99.90
20827;DHT22;10574;52.508;13.236;2023-11-21T01:21:37;6.60;99.90
20827;DHT22;10574;52.508;13.236;2023-11-21T01:24:05;6.60;99.90
20827;DHT22;10574;52.508;13.236;2023-11-21T01:26:33;6.40;99.90
20827;DHT22;10574;52.508;13.236;2023-11-21T01:29:01;6.40;99.90
20827;DHT22;10574;52.508;13.236;2023-11-21T01:31:29;6.40;99.90
20827;DHT22;10574;52.508;13.236;2023-11-21T01:33:57;6.40;99.90
20827;DHT22;10574;52.508;13.236;2023-11-21T01:36:29;6.40;99.90
20827;DHT22;10574;52.508;13.236;2023-11-21T01:38:59;6.30;99.90
20827;DHT22;10574;52.508;13.236;2023-11-21T01:41:27;6.40;99.90
20827;DHT22;10574;52.508;13.236;2023-11-21T01:43:56;6.40;99.90
20827;DHT22;10574;52.508;13.236;2023-11-21T01:46:24;6.30;99.90
20827;DHT22;10574;52.508;13.236;2023-11-21T01:48:52;6.30;99.90
20827;DHT22;10574;52.508;13.236;2023-11-21T01:51:21;6.20;99.90
20827;DHT22;10574;52.508;13.236;2023-11-21T01:53:49;6.20;99.90
20827;DHT22;10574;52.508;13.236;2023-11-21T01:56:16;6.30;99.90
20827;DHT22;10574;52.508;13.236;2023-11-21T01:58:45;6.30;99.90
20827;DHT22;10574;52.508;13.236;2023-11-21T02:01:13;6.20;99.90
20827;DHT22;10574;52.508;13.236;2023-11-21T02:03:41;6.30;99.90
20827;DHT22;10574;52.508;13.236;2023-11-21T02:06:09;6.20;99.90
20827;DHT22;10574;52.508;13.236;2023-11-21T02:08:36;6.20;99.90
20827;DHT22;10574;52.508;13.236;2023-11-21T02:11:04;6.20;99.90
20827;DHT22;10574;52.508;13.236;2023-11-21T02:13:32;6.20;99.90
20827;DHT22;10574;52.508;13.236;2023-11-21T02:16:00;6.10;99.90
20827;DHT22;10574;52.508;13.236;2023-11-21T02:18:28;6.00;99.90
20827;DHT22;10574;52.508;13.236;2023-11-21T02:20:56;6.00;99.90
20827;DHT22;10574;52.508;13.236;2023-11-21T02:23:24;6.00;99.90
20827;DHT22;10574;52.508;13.236;2023-11-21T02:25:53;6.00;99.90
20827;DHT22;10574;52.508;13.236;2023-11-21T02:28:21;5.90;99.90
20827;DHT22;10574;52.508;13.236;2023-11-21T02:30:55;5.90;99.90
20827;DHT22;10574;52.508;13.236;2023-11-21T02:33:24;5.90;99.90
20827;DHT22;10574;52.508;13.236;2023-11-21T02:35:52;5.90;99.90
20827;DHT22;10574;52.508;13.236;2023-11-21T02:38:21;5.90;99.90
20827;DHT22;10574;52.508;13.236;2023-11-21T02:40:49;5.90;99.90
20827;DHT22;10574;52.508;13.236;2023-11-21T02:43:17;5.90;99.90
20827;DHT22;10574;52.508;13.236;2023-11-21T02:45:44;5.90;99.90
20827;DHT22;10574;52.508;13.236;2023-11-21T02:48:16;5.90;99.90
20827;DHT22;10574;52.508;13.236;2023-11-21T02:50:44;5.90;99.90
20827;DHT22;10574;52.508;13.236;2023-11-21T02:53:13;5.80;99.90
20827;DHT22;10574;52.508;13.236;2023-11-21T02:55:41;5.80;99.90
20827;DHT22;10574;52.508;13.236;2023-11-21T02:58:09;5.80;99.90
20827;DHT22;10574;52.508;13.236;2023-11-21T03:00:36;5.70;99.90
20827;DHT22;10574;52.508;13.236;2023-11-21T03:03:06;5.70;99.90
20827;DHT22;10574;52.508;13.236;2023-11-21T03:05:33;5.70;99.90
20827;DHT22;10574;52.508;13.236;2023-11-21T03:08:02;5.70;99.90
20827;DHT22;10574;52.508;13.236;2023-11-21T03:10:29;5.70;99.90
20827;DHT22;10574;52.508;13.236;2023-11-21T03:12:57;5.70;99.90
20827;DHT22;10574;52.508;13.236;2023-11-21T03:15:25;5.70;99.90
20827;DHT22;10574;52.508;13.236;2023-11-21T03:17:53;5.70;99.90
20827;DHT22;10574;52.508;13.236;2023-11-21T03:20:22;5.70;99.90
20827;DHT22;10574;52.508;13.236;2023-11-21T03:22:51;5.60;99.90
20827;DHT22;10574;52.508;13.236;2023-11-21T03:25:22;5.60;99.90
20827;DHT22;10574;52.508;13.236;2023-11-21T03:27:51;5.60;99.90
20827;DHT22;10574;52.508;13.236;2023-11-21T03:30:20;5.50;99.90
20827;DHT22;10574;52.508;13.236;2023-11-21T03:32:48;5.50;99.90
20827;DHT22;10574;52.508;13.236;2023-11-21T03:35:16;5.60;99.90
20827;DHT22;10574;52.508;13.236;2023-11-21T03:37:46;5.50;99.90
20827;DHT22;10574;52.508;13.236;2023-11-21T03:40:14;5.60;99.90
20827;DHT22;10574;52.508;13.236;2023-11-21T03:42:42;5.50;99.90
20827;DHT22;10574;52.508;13.236;2023-11-21T03:45:10;5.50;99.90
20827;DHT22;10574;52.508;13.236;2023-11-21T03:47:39;5.60;99.90
20827;DHT22;10574;52.508;13.236;2023-11-21T03:50:07;5.60;99.90
20827;DHT22;10574;52.508;13.236;2023-11-21T03:52:37;5.60;99.90
20827;DHT22;10574;52.508;13.236;2023-11-21T03:55:05;5.60;99.90
20827;DHT22;10574;52.508;13.236;2023-11-21T03:57:33;5.60;99.90
20827;DHT22;10574;52.508;13.236;2023-11-21T04:00:02;5.50;99.90
20827;DHT22;10574;52.508;13.236;2023-11-21T04:02:31;5.50;99.90
20827;DHT22;10574;52.508;13.236;2023-11-21T04:05:01;5.60;99.90
20827;DHT22;10574;52.508;13.236;2023-11-21T04:07:29;5.60;99.90
20827;DHT22;10574;52.508;13.236;2023-11-21T04:09:57;5.60;99.90
20827;DHT22;10574;52.508;13.236;2023-11-21T04:12:25;5.60;99.90
20827;DHT22;10574;52.508;13.236;2023-11-21T04:14:53;5.60;99.90
20827;DHT22;10574;52.508;13.236;2023-11-21T04:17:20;5.60;99.90
20827;DHT22;10574;52.508;13.236;2023-11-21T04:19:48;5.60;99.90
20827;DHT22;10574;52.508;13.236;2023-11-21T04:22:16;5.60;99.90
20827;DHT22;10574;52.508;13.236;2023-11-21T04:24:44;5.50;99.90
20827;DHT22;10574;52.508;13.236;2023-11-21T04:27:11;5.50;99.90
20827;DHT22;10574;52.508;13.236;2023-11-21T04:29:41;5.40;99.90
20827;DHT22;10574;52.508;13.236;2023-11-21T04:32:08;5.40;99.90
20827;DHT22;10574;52.508;13.236;2023-11-21T04:34:36;5.50;99.90
20827;DHT22;10574;52.508;13.236;2023-11-21T04:37:04;5.50;99.90
20827;DHT22;10574;52.508;13.236;2023-11-21T04:39:33;5.50;99.90
20827;DHT22;10574;52.508;13.236;2023-11-21T04:42:00;5.40;99.90
20827;DHT22;10574;52.508;13.236;2023-11-21T04:44:29;5.40;99.90
20827;DHT22;10574;52.508;13.236;2023-11-21T04:46:56;5.50;99.90
20827;DHT22;10574;52.508;13.236;2023-11-21T04:49:24;5.40;99.90
20827;DHT22;10574;52.508;13.236;2023-11-21T04:51:52;5.40;99.90
20827;DHT22;10574;52.508;13.236;2023-11-21T04:54:20;5.40;99.90
20827;DHT22;10574;52.508;13.236;2023-11-21T04:56:48;5.40;99.90
20827;DHT22;10574;52.508;13.236;2023-11-21T05:02:04;5.40;99.90
20827;DHT22;10574;52.508;13.236;2023-11-21T05:04:32;5.40;99.90
20827;DHT22;10574;52.508;13.236;2023-11-21T05:06:59;5.40;99.90
20827;DHT22;10574;52.508;13.236;2023-11-21T05:09:27;5.30;99.90
20827;DHT22;10574;52.508;13.236;2023-11-21T05:11:56;5.30;99.90
20827;DHT22;10574;52.508;13.236;2023-11-21T05:14:24;5.30;99.90
20827;DHT22;10574;52.508;13.236;2023-11-21T05:16:52;5.30;99.90
20827;DHT22;10574;52.508;13.236;2023-11-21T05:19:20;5.30;99.90
20827;DHT22;10574;52.508;13.236;2023-11-21T05:21:50;5.30;99.90
20827;DHT22;10574;52.508;13.236;2023-11-21T05:24:18;5.30;99.90
20827;DHT22;10574;52.508;13.236;2023-11-21T05:27:04;5.20;99.90
20827;DHT22;10574;52.508;13.236;2023-11-21T05:29:32;5.30;99.90
20827;DHT22;10574;52.508;13.236;2023-11-21T05:32:00;5.20;99.90
20827;DHT22;10574;52.508;13.236;2023-11-21T05:34:29;5.10;99.90
20827;DHT22;10574;52.508;13.236;2023-11-21T05:36:57;5.20;99.90
20827;DHT22;10574;52.508;13.236;2023-11-21T05:39:25;5.20;99.90
20827;DHT22;10574;52.508;13.236;2023-11-21T05:41:55;5.10;99.90
20827;DHT22;10574;52.508;13.236;2023-11-21T05:44:24;5.10;99.90
20827;DHT22;10574;52.508;13.236;2023-11-21T05:46:52;5.10;99.90
20827;DHT22;10574;52.508;13.236;2023-11-21T05:49:20;5.10;99.90
20827;DHT22;10574;52.508;13.236;2023-11-21T05:51:54;5.20;99.90
20827;DHT22;10574;52.508;13.236;2023-11-21T05:54:22;5.20;99.90
20827;DHT22;10574;52.508;13.236;2023-11-21T05:56:50;5.10;99.90
20827;DHT22;10574;52.508;13.236;2023-11-21T05:59:18;5.10;99.90
20827;DHT22;10574;52.508;13.236;2023-11-21T06:01:47;5.10;99.90
20827;DHT22;10574;52.508;13.236;2023-11-21T06:04:15;5.10;99.90
20827;DHT22;10574;52.508;13.236;2023-11-21T06:06:48;5.10;99.90
20827;DHT22;10574;52.508;13.236;2023-11-21T06:09:20;5.10;99.90
20827;DHT22;10574;52.508;13.236;2023-11-21T06:11:48;5.00;99.90
20827;DHT22;10574;52.508;13.236;2023-11-21T06:14:21;5.10;99.90
20827;DHT22;10574;52.508;13.236;2023-11-21T06:16:49;5.10;99.90
20827;DHT22;10574;52.508;13.236;2023-11-21T06:19:19;5.10;99.90
20827;DHT22;10574;52.508;13.236;2023-11-21T06:24:49;5.10;99.90
20827;DHT22;10574;52.508;13.236;2023-11-21T06:27:21;5.00;99.90
20827;DHT22;10574;52.508;13.236;2023-11-21T06:29:49;5.00;99.90
20827;DHT22;10574;52.508;13.236;2023-11-21T06:32:17;4.90;99.90
20827;DHT22;10574;52.508;13.236;2023-11-21T06:34:46;4.90;99.90
20827;DHT22;10574;52.508;13.236;2023-11-21T06:37:15;5.00;99.90
20827;DHT22;10574;52.508;13.236;2023-11-21T06:39:44;5.00;99.90
20827;DHT22;10574;52.508;13.236;2023-11-21T06:42:14;5.00;99.90
20827;DHT22;10574;52.508;13.236;2023-11-21T06:44:45;5.00;99.90
20827;DHT22;10574;52.508;13.236;2023-11-21T06:47:19;5.00;99.90
20827;DHT22;10574;52.508;13.236;2023-11-21T06:49:47;5.00;99.90
20827;DHT22;10574;52.508;13.236;2023-11-21T06:52:15;5.00;99.90
20827;DHT22;10574;52.508;13.236;2023-11-21T06:54:43;4.90;99.90
20827;DHT22;10574;52.508;13.236;2023-11-21T06:57:12;4.90;99.90
20827;DHT22;10574;52.508;13.236;2023-11-21T06:59:40;4.90;99.90
20827;DHT22;10574;52.508;13.236;2023-11-21T07:02:07;4.90;99.90
20827;DHT22;10574;52.508;13.236;2023-11-21T07:04:39;4.90;99.90
20827;DHT22;10574;52.508;13.236;2023-11-21T07:07:07;4.90;99.90
20827;DHT22;10574;52.508;13.236;2023-11-21T07:09:34;4.90;99.90
20827;DHT22;10574;52.508;13.236;2023-11-21T07:12:02;4.90;99.90
20827;DHT22;10574;52.508;13.236;2023-11-21T07:14:34;4.90;99.90
20827;DHT22;10574;52.508;13.236;2023-11-21T07:17:01;4.90;99.90
20827;DHT22;10574;52.508;13.236;2023-11-21T07:19:29;4.90;99.90
20827;DHT22;10574;52.508;13.236;2023-11-21T07:21:57;4.90;99.90
20827;DHT22;10574;52.508;13.236;2023-11-21T07:24:25;5.00;99.90
20827;DHT22;10574;52.508;13.236;2023-11-21T07:26:53;5.00;99.90
20827;DHT22;10574;52.508;13.236;2023-11-21T07:29:23;5.00;99.90
20827;DHT22;10574;52.508;13.236;2023-11-21T07:31:53;5.00;99.90
20827;DHT22;10574;52.508;13.236;2023-11-21T07:34:21;4.90;99.90
20827;DHT22;10574;52.508;13.236;2023-11-21T07:36:49;4.90;99.90
20827;DHT22;10574;52.508;13.236;2023-11-21T07:39:17;5.00;99.90
20827;DHT22;10574;52.508;13.236;2023-11-21T07:41:44;5.00;99.90
20827;DHT22;10574;52.508;13.236;2023-11-21T07:44:14;5.00;99.90
20827;DHT22;10574;52.508;13.236;2023-11-21T07:46:43;5.00;99.90
20827;DHT22;10574;52.508;13.236;2023-11-21T07:49:11;4.90;99.90
20827;DHT22;10574;52.508;13.236;2023-11-21T07:51:40;5.00;99.90
20827;DHT22;10574;52.508;13.236;2023-11-21T07:54:08;4.90;99.90
20827;DHT22;10574;52.508;13.236;2023-11-21T07:56:36;4.90;99.90
20827;DHT22;10574;52.508;13.236;2023-11-21T07:59:04;4.90;99.90
20827;DHT22;10574;52.508;13.236;2023-11-21T08:01:32;4.90;99.90
20827;DHT22;10574;52.508;13.236;2023-11-21T08:03:59;4.90;99.90
20827;DHT22;10574;52.508;13.236;2023-11-21T08:06:29;4.90;99.90
20827;DHT22;10574;52.508;13.236;2023-11-21T08:08:57;5.00;99.90
20827;DHT22;10574;52.508;13.236;2023-11-21T08:11:25;5.00;99.90
20827;DHT22;10574;52.508;13.236;2023-11-21T08:13:57;5.10;99.90
20827;DHT22;10574;52.508;13.236;2023-11-21T08:16:25;5.10;99.90
20827;DHT22;10574;52.508;13.236;2023-11-21T08:18:55;5.10;99.90
20827;DHT22;10574;52.508;13.236;2023-11-21T08:21:23;5.10;99.90
20827;DHT22;10574;52.508;13.236;2023-11-21T08:23:51;5.00;99.90
20827;DHT22;10574;52.508;13.236;2023-11-21T08:26:25;5.00;99.90
20827;DHT22;10574;52.508;13.236;2023-11-21T08:28:54;5.00;99.90
20827;DHT22;10574;52.508;13.236;2023-11-21T08:31:27;5.00;99.90
20827;DHT22;10574;52.508;13.236;2023-11-21T08:33:55;5.10;99.90
20827;DHT22;10574;52.508;13.236;2023-11-21T08:36:23;5.00;99.90
20827;DHT22;10574;52.508;13.236;2023-11-21T08:38:51;5.00;99.90
20827;DHT22;10574;52.508;13.236;2023-11-21T08:41:19;4.90;99.90
20827;DHT22;10574;52.508;13.236;2023-11-21T08:43:51;5.00;99.90
20827;DHT22;10574;52.508;13.236;2023-11-21T08:46:20;5.00;99.90
20827;DHT22;10574;52.508;13.236;2023-11-21T08:48:48;4.90;99.90
20827;DHT22;10574;52.508;13.236;2023-11-21T08:51:17;4.80;99.90
20827;DHT22;10574;52.508;13.236;2023-11-21T08:53:44;4.90;99.90
20827;DHT22;10574;52.508;13.236;2023-11-21T08:56:15;4.90;99.90
20827;DHT22;10574;52.508;13.236;2023-11-21T08:58:45;4.80;99.90
20827;DHT22;10574;52.508;13.236;2023-11-21T09:01:13;4.80;99.90
20827;DHT22;10574;52.508;13.236;2023-11-21T09:03:41;4.80;99.90
20827;DHT22;10574;52.508;13.236;2023-11-21T09:06:11;4.80;99.90
20827;DHT22;10574;52.508;13.236;2023-11-21T09:08:40;4.80;99.90
20827;DHT22;10574;52.508;13.236;2023-11-21T09:11:09;4.90;99.90
20827;DHT22;10574;52.508;13.236;2023-11-21T09:13:37;4.80;99.90
20827;DHT22;10574;52.508;13.236;2023-11-21T09:16:05;4.90;99.90
20827;DHT22;10574;52.508;13.236;2023-11-21T09:18:33;4.80;99.90
20827;DHT22;10574;52.508;13.236;2023-11-21T09:21:00;4.80;99.90
20827;DHT22;10574;52.508;13.236;2023-11-21T09:23:28;4.80;99.90
20827;DHT22;10574;52.508;13.236;2023-11-21T09:25:56;4.80;99.90
20827;DHT22;10574;52.508;13.236;2023-11-21T09:28:25;4.80;99.90
20827;DHT22;10574;52.508;13.236;2023-11-21T09:30:54;4.80;99.90
20827;DHT22;10574;52.508;13.236;2023-11-21T09:33:21;4.90;99.90
20827;DHT22;10574;52.508;13.236;2023-11-21T09:35:51;4.90;99.90
20827;DHT22;10574;52.508;13.236;2023-11-21T09:38:19;5.00;99.90
20827;DHT22;10574;52.508;13.236;2023-11-21T09:40:46;4.90;99.90
20827;DHT22;10574;52.508;13.236;2023-11-21T09:43:17;4.80;99.90
20827;DHT22;10574;52.508;13.236;2023-11-21T09:45:46;4.80;99.90
20827;DHT22;10574;52.508;13.236;2023-11-21T09:48:18;4.80;99.90
20827;DHT22;10574;52.508;13.236;2023-11-21T09:50:47;4.70;99.90
20827;DHT22;10574;52.508;13.236;2023-11-21T09:53:20;4.80;99.90
20827;DHT22;10574;52.508;13.236;2023-11-21T09:55:50;4.80;99.90
20827;DHT22;10574;52.508;13.236;2023-11-21T09:58:18;4.90;99.90
20827;DHT22;10574;52.508;13.236;2023-11-21T10:00:49;5.00;99.90
20827;DHT22;10574;52.508;13.236;2023-11-21T10:03:17;5.00;99.90
20827;DHT22;10574;52.508;13.236;2023-11-21T10:05:46;5.00;99.90
20827;DHT22;10574;52.508;13.236;2023-11-21T10:08:16;5.10;99.90
20827;DHT22;10574;52.508;13.236;2023-11-21T10:10:46;5.10;99.90
20827;DHT22;10574;52.508;13.236;2023-11-21T10:13:15;5.10;99.90
20827;DHT22;10574;52.508;13.236;2023-11-21T10:15:49;5.10;99.90
20827;DHT22;10574;52.508;13.236;2023-11-21T10:18:15;5.10;99.90
20827;DHT22;10574;52.508;13.236;2023-11-21T10:20:44;5.10;99.90
20827;DHT22;10574;52.508;13.236;2023-11-21T10:23:18;4.90;99.90
20827;DHT22;10574;52.508;13.236;2023-11-21T10:25:47;4.90;99.90
20827;DHT22;10574;52.508;13.236;2023-11-21T10:28:17;4.90;99.90
20827;DHT22;10574;52.508;13.236;2023-11-21T10:30:45;4.90;99.90
20827;DHT22;10574;52.508;13.236;2023-11-21T10:33:13;4.90;99.90
20827;DHT22;10574;52.508;13.236;2023-11-21T10:35:46;4.90;99.90
20827;DHT22;10574;52.508;13.236;2023-11-21T10:38:16;4.80;99.90
20827;DHT22;10574;52.508;13.236;2023-11-21T10:40:44;4.90;99.90
20827;DHT22;10574;52.508;13.236;2023-11-21T10:43:13;5.00;99.90
20827;DHT22;10574;52.508;13.236;2023-11-21T10:45:43;4.90;99.90
20827;DHT22;10574;52.508;13.236;2023-11-21T10:48:13;4.90;99.90
20827;DHT22;10574;52.508;13.236;2023-11-21T10:50:45;4.60;99.90
20827;DHT22;10574;52.508;13.236;2023-11-21T10:53:13;4.50;99.90
20827;DHT22;10574;52.508;13.236;2023-11-21T10:55:41;4.40;99.90
20827;DHT22;10574;52.508;13.236;2023-11-21T10:58:11;4.30;99.90
20827;DHT22;10574;52.508;13.236;2023-11-21T11:00:42;4.30;99.90
20827;DHT22;10574;52.508;13.236;2023-11-21T11:03:12;4.40;99.90
20827;DHT22;10574;52.508;13.236;2023-11-21T11:05:43;4.40;99.90
20827;DHT22;10574;52.508;13.236;2023-11-21T11:08:17;4.50;99.90
20827;DHT22;10574;52.508;13.236;2023-11-21T11:10:46;4.50;99.90
20827;DHT22;10574;52.508;13.236;2023-11-21T11:13:14;4.50;99.90
20827;DHT22;10574;52.508;13.236;2023-11-21T11:15:43;4.50;99.90
20827;DHT22;10574;52.508;13.236;2023-11-21T11:18:12;4.40;99.90
20827;DHT22;10574;52.508;13.236;2023-11-21T11:20:42;4.40;99.90
20827;DHT22;10574;52.508;13.236;2023-11-21T11:23:37;4.30;99.90
20827;DHT22;10574;52.508;13.236;2023-11-21T11:26:20;4.30;99.90
20827;DHT22;10574;52.508;13.236;2023-11-21T11:29:02;4.40;99.90
20827;DHT22;10574;52.508;13.236;2023-11-21T11:31:46;4.40;99.90
20827;DHT22;10574;52.508;13.236;2023-11-21T11:34:20;4.40;99.90
20827;DHT22;10574;52.508;13.236;2023-11-21T11:37:01;4.30;99.90
20827;DHT22;10574;52.508;13.236;2023-11-21T11:39:36;4.30;99.90
20827;DHT22;10574;52.508;13.236;2023-11-21T11:42:06;4.20;99.90
20827;DHT22;10574;52.508;13.236;2023-11-21T11:47:18;4.10;99.90
20827;DHT22;10574;52.508;13.236;2023-11-21T11:50:03;4.10;99.90
20827;DHT22;10574;52.508;13.236;2023-11-21T11:52:42;4.00;99.90
20827;DHT22;10574;52.508;13.236;2023-11-21T11:55:21;4.00;99.90
20827;DHT22;10574;52.508;13.236;2023-11-21T11:57:53;4.00;99.90
20827;DHT22;10574;52.508;13.236;2023-11-21T12:03:19;4.00;99.90
20827;DHT22;10574;52.508;13.236;2023-11-21T12:05:47;4.10;99.90
20827;DHT22;10574;52.508;13.236;2023-11-21T12:08:18;4.00;99.90
20827;DHT22;10574;52.508;13.236;2023-11-21T12:10:45;4.00;99.90
20827;DHT22;10574;52.508;13.236;2023-11-21T12:13:17;4.00;99.90
20827;DHT22;10574;52.508;13.236;2023-11-21T12:15:44;4.10;99.90
20827;DHT22;10574;52.508;13.236;2023-11-21T12:18:12;4.10;99.90
20827;DHT22;10574;52.508;13.236;2023-11-21T12:20:40;4.10;99.90
20827;DHT22;10574;52.508;13.236;2023-11-21T12:23:09;4.10;99.90
20827;DHT22;10574;52.508;13.236;2023-11-21T12:25:38;4.10;99.90
20827;DHT22;10574;52.508;13.236;2023-11-21T12:28:06;4.10;99.90
20827;DHT22;10574;52.508;13.236;2023-11-21T12:30:35;4.10;99.90
20827;DHT22;10574;52.508;13.236;2023-11-21T12:33:04;4.10;99.90
20827;DHT22;10574;52.508;13.236;2023-11-21T12:35:34;4.00;99.90
20827;DHT22;10574;52.508;13.236;2023-11-21T12:38:04;4.00;99.90
20827;DHT22;10574;52.508;13.236;2023-11-21T12:40:32;4.00;99.90
20827;DHT22;10574;52.508;13.236;2023-11-21T12:43:00;4.00;99.90
20827;DHT22;10574;52.508;13.236;2023-11-21T12:45:30;3.90;99.90
20827;DHT22;10574;52.508;13.236;2023-11-21T12:48:01;3.90;99.90
20827;DHT22;10574;52.508;13.236;2023-11-21T12:50:31;4.00;99.90
20827;DHT22;10574;52.508;13.236;2023-11-21T12:53:05;4.10;99.90
20827;DHT22;10574;52.508;13.236;2023-11-21T12:55:35;4.20;99.90
20827;DHT22;10574;52.508;13.236;2023-11-21T12:58:07;4.20;99.90
20827;DHT22;10574;52.508;13.236;2023-11-21T13:00:47;4.30;99.90
20827;DHT22;10574;52.508;13.236;2023-11-21T13:03:20;4.30;99.90
20827;DHT22;10574;52.508;13.236;2023-11-21T13:05:49;4.20;99.90
20827;DHT22;10574;52.508;13.236;2023-11-21T13:08:19;4.20;99.90
20827;DHT22;10574;52.508;13.236;2023-11-21T13:10:56;4.30;99.90
20827;DHT22;10574;52.508;13.236;2023-11-21T13:13:25;4.30;99.90
20827;DHT22;10574;52.508;13.236;2023-11-21T13:15:55;4.20;99.90
20827;DHT22;10574;52.508;13.236;2023-11-21T13:18:25;4.20;99.90
20827;DHT22;10574;52.508;13.236;2023-11-21T13:20:54;4.20;99.90
20827;DHT22;10574;52.508;13.236;2023-11-21T13:23:22;4.10;99.90
20827;DHT22;10574;52.508;13.236;2023-11-21T13:25:51;4.00;99.90
20827;DHT22;10574;52.508;13.236;2023-11-21T13:28:19;4.00;99.90
20827;DHT22;10574;52.508;13.236;2023-11-21T13:30:48;3.80;99.90
20827;DHT22;10574;52.508;13.236;2023-11-21T13:33:18;3.80;99.90
20827;DHT22;10574;52.508;13.236;2023-11-21T13:35:47;3.70;99.90
20827;DHT22;10574;52.508;13.236;2023-11-21T13:38:18;3.70;99.90
20827;DHT22;10574;52.508;13.236;2023-11-21T13:40:49;3.70;99.90
20827;DHT22;10574;52.508;13.236;2023-11-21T13:43:21;3.70;99.90
20827;DHT22;10574;52.508;13.236;2023-11-21T13:45:52;3.60;99.90
20827;DHT22;10574;52.508;13.236;2023-11-21T13:48:25;3.70;99.90
20827;DHT22;10574;52.508;13.236;2023-11-21T13:50:54;3.60;99.90
20827;DHT22;10574;52.508;13.236;2023-11-21T13:53:24;3.60;99.90
20827;DHT22;10574;52.508;13.236;2023-11-21T13:55:54;3.70;99.90
20827;DHT22;10574;52.508;13.236;2023-11-21T13:58:25;3.60;99.90
20827;DHT22;10574;52.508;13.236;2023-11-21T14:01:11;3.60;99.90
20827;DHT22;10574;52.508;13.236;2023-11-21T14:04:00;3.50;99.90
20827;DHT22;10574;52.508;13.236;2023-11-21T14:06:49;3.60;99.90
20827;DHT22;10574;52.508;13.236;2023-11-21T14:09:21;3.50;99.90
20827;DHT22;10574;52.508;13.236;2023-11-21T14:11:54;3.40;99.90
20827;DHT22;10574;52.508;13.236;2023-11-21T14:14:24;3.50;99.90
20827;DHT22;10574;52.508;13.236;2023-11-21T14:16:54;3.60;99.90
20827;DHT22;10574;52.508;13.236;2023-11-21T14:19:23;3.70;99.90
20827;DHT22;10574;52.508;13.236;2023-11-21T14:21:54;3.60;99.90
20827;DHT22;10574;52.508;13.236;2023-11-21T14:24:24;3.70;99.90
20827;DHT22;10574;52.508;13.236;2023-11-21T14:26:52;3.40;99.90
20827;DHT22;10574;52.508;13.236;2023-11-21T14:29:20;3.30;99.90
20827;DHT22;10574;52.508;13.236;2023-11-21T14:31:49;3.30;99.90
20827;DHT22;10574;52.508;13.236;2023-11-21T14:34:18;3.30;99.90
20827;DHT22;10574;52.508;13.236;2023-11-21T14:36:45;3.20;99.90
20827;DHT22;10574;52.508;13.236;2023-11-21T14:39:13;3.30;99.90
20827;DHT22;10574;52.508;13.236;2023-11-21T14:41:52;3.10;99.90
20827;DHT22;10574;52.508;13.236;2023-11-21T14:44:22;3.00;99.90
20827;DHT22;10574;52.508;13.236;2023-11-21T14:46:51;3.00;99.90
20827;DHT22;10574;52.508;13.236;2023-11-21T14:49:21;3.00;99.90
20827;DHT22;10574;52.508;13.236;2023-11-21T14:51:52;3.00;99.90
20827;DHT22;10574;52.508;13.236;2023-11-21T14:54:33;3.10;99.90
20827;DHT22;10574;52.508;13.236;2023-11-21T14:57:12;3.10;99.90
20827;DHT22;10574;52.508;13.236;2023-11-21T14:59:44;3.00;99.90
20827;DHT22;10574;52.508;13.236;2023-11-21T15:02:19;2.90;99.90
20827;DHT22;10574;52.508;13.236;2023-11-21T15:04:51;2.90;99.90
20827;DHT22;10574;52.508;13.236;2023-11-21T15:07:20;2.90;99.90
20827;DHT22;10574;52.508;13.236;2023-11-21T15:09:50;2.90;99.90
20827;DHT22;10574;52.508;13.236;2023-11-21T15:12:19;2.90;99.90
20827;DHT22;10574;52.508;13.236;2023-11-21T15:14:51;2.80;99.90
20827;DHT22;10574;52.508;13.236;2023-11-21T15:17:23;2.80;99.90
20827;DHT22;10574;52.508;13.236;2023-11-21T15:19:55;2.70;99.90
20827;DHT22;10574;52.508;13.236;2023-11-21T15:25:41;2.80;99.90
20827;DHT22;10574;52.508;13.236;2023-11-21T15:28:09;2.70;99.90
20827;DHT22;10574;52.508;13.236;2023-11-21T15:30:38;2.70;99.90
20827;DHT22;10574;52.508;13.236;2023-11-21T15:33:05;2.70;99.90
20827;DHT22;10574;52.508;13.236;2023-11-21T15:35:34;2.80;99.90
20827;DHT22;10574;52.508;13.236;2023-11-21T15:38:03;2.70;99.90
20827;DHT22;10574;52.508;13.236;2023-11-21T15:40:31;2.80;99.90
20827;DHT22;10574;52.508;13.236;2023-11-21T15:42:59;2.80;99.90
20827;DHT22;10574;52.508;13.236;2023-11-21T15:45:28;2.70;99.90
20827;DHT22;10574;52.508;13.236;2023-11-21T15:48:16;2.70;99.90
20827;DHT22;10574;52.508;13.236;2023-11-21T15:50:44;2.70;99.90
20827;DHT22;10574;52.508;13.236;2023-11-21T15:53:13;2.70;99.90
20827;DHT22;10574;52.508;13.236;2023-11-21T15:55:42;2.80;99.90
20827;DHT22;10574;52.508;13.236;2023-11-21T15:58:09;2.80;99.90